This is the latest recevied weather packets stored in our database for station/object KG7KID-3. If no packets are shown the sender has not sent any weather packets the latest 10 day(s).
| Time | Temp. | Humidity | Pressure | Rain* | Wind** | Luminosity | Snow |
|---|---|---|---|---|---|---|---|
| 1777933340 | 25° C | 30% | 883.7 hPa | 0 mm | - | - | - |
| 1777933023 | 25° C | 30% | 883.7 hPa | 0 mm | - | - | - |
| 1777929256 | 26.67° C | 25% | 884.1 hPa | 0 mm | - | - | - |
| 1777927755 | 26.67° C | 25% | 884.2 hPa | 0 mm | - | - | - |
| 1777927558 | 26.67° C | 25% | 884.3 hPa | 0 mm | - | - | - |
| 1777927456 | 26.67° C | 25% | 884.3 hPa | 0 mm | - | - | - |
| 1777923256 | 26.11° C | 27% | 884.4 hPa | 0 mm | - | - | - |
| 1777922355 | 26.11° C | 26% | 884.4 hPa | 0 mm | - | - | - |
| 1777920255 | 25.56° C | 27% | 884.6 hPa | 0 mm | - | - | - |
| 1777919355 | 25° C | 26% | 884.8 hPa | 0 mm | - | - | - |
| 1777916056 | 25.56° C | 27% | 885.6 hPa | 0 mm | - | - | - |
| 1777914556 | 25° C | 27% | 885.3 hPa | 0 mm | - | - | - |
| 1777913955 | 25° C | 28% | 885.5 hPa | 0 mm | - | - | - |
| 1777913655 | 24.44° C | 31% | 885.5 hPa | 0 mm | - | - | - |
| 1777913031 | 24.44° C | 32% | 885.4 hPa | 0 mm | - | - | - |
| 1777912755 | 24.44° C | 32% | 885.4 hPa | 0 mm | - | - | - |
| 1777912455 | 24.44° C | 33% | 885.4 hPa | 0 mm | - | - | - |
| 1777911855 | 24.44° C | 33% | 885.5 hPa | 0 mm | - | - | - |
| 1777911606 | 24.44° C | 34% | 885.4 hPa | 0 mm | - | - | - |
| 1777911555 | 24.44° C | 34% | 885.4 hPa | 0 mm | - | - | - |
| 1777911255 | 24.44° C | 34% | 885.4 hPa | 0 mm | - | - | - |
| 1777910956 | 23.89° C | 36% | 885.5 hPa | 0 mm | - | - | - |
| 1777910656 | 23.33° C | 37% | 885.6 hPa | 0 mm | - | - | - |
| 1777910356 | 23.33° C | 37% | 885.5 hPa | 0 mm | - | - | - |
| 1777910056 | - | - | 885.5 hPa | 0 mm | - | - | - |
* Rain latest hour (hover to see other rain measurements)
** Current wind speed in m/s (hover to see current wind gust speed)